Time;durP1;ratioP1;P1;durP2;ratioP2;P2;SDS_P1;SDS_P2;PMS_P1;PMS_P2;Temp;Humidity;BMP_temperature;BMP_pressure;BME280_temperature;BME280_humidity;BME280_pressure;Samples;Min_cycle;Max_cycle;Signal;HPM_P1;HPM_P2
2022/08/22 00:00:31;;;;;;;8.38;2.70;;;18.60;99.90;;;17.84;100.00;101124.66;3943661;30;20050;-76
2022/08/22 00:03:02;;;;;;;6.78;2.67;;;18.60;99.90;;;18.00;100.00;101144.91;3950844;30;20516;-77
2022/08/22 00:05:31;;;;;;;5.47;2.25;;;18.60;99.90;;;18.01;100.00;101147.38;3937885;30;20563;-77
2022/08/22 00:08:06;;;;;;;6.50;2.15;;;18.60;99.90;;;17.90;100.00;101134.56;3937595;30;20494;-76
2022/08/22 00:10:24;;;;;;;;;;;18.60;99.90;;;17.94;100.00;101148.34;3937091;30;20074;-77
2022/08/22 00:12:41;;;;;;;7.07;2.88;;;18.60;99.90;;;17.81;100.00;101110.88;3937673;30;19918;-76
2022/08/22 00:14:56;;;;;;;6.82;2.38;;;18.60;99.90;;;17.93;100.00;101122.66;3936195;30;20112;-77
2022/08/22 00:17:24;;;;;;;2.33;1.38;;;18.60;99.90;;;18.05;100.00;101137.13;3933800;30;20025;-77
2022/08/22 00:19:40;;;;;;;4.95;1.73;;;18.60;99.90;;;17.95;100.00;101117.97;3950347;30;20035;-76
2022/08/22 00:22:13;;;;;;;2.30;1.15;;;18.60;99.90;;;18.07;100.00;101143.91;3949837;30;20124;-77
2022/08/22 00:24:58;;;;;;;3.17;1.50;;;18.70;99.90;;;18.05;100.00;101137.13;3952735;30;20048;-77
2022/08/22 00:27:18;;;;;;;5.50;2.08;;;18.70;99.90;;;17.99;100.00;101136.06;3944268;30;20048;-77
2022/08/22 00:29:28;;;;;;;4.55;1.55;;;18.60;99.90;;;18.01;100.00;101135.88;3950512;30;20067;-77
2022/08/22 00:31:37;;;;;;;7.90;1.77;;;18.70;99.90;;;17.96;100.00;101132.97;3950576;30;20485;-77
2022/08/22 00:33:49;;;;;;;4.07;1.75;;;18.70;99.90;;;17.98;100.00;101136.28;3951292;30;20042;-77
2022/08/22 00:36:24;;;;;;;2.78;1.50;;;18.60;99.90;;;17.92;100.00;101121.84;3937343;30;20032;-77
2022/08/22 00:38:41;;;;;;;4.70;1.70;;;18.60;99.90;;;17.94;100.00;101125.16;3930253;30;20044;-76
2022/08/22 00:40:54;;;;;;;4.32;1.60;;;18.70;99.90;;;18.08;100.00;101145.59;3950442;30;20036;-76
2022/08/22 00:43:26;;;;;;;7.22;2.15;;;18.70;99.90;;;17.90;100.00;101115.06;3936904;30;20413;-76
2022/08/22 00:46:30;;;;;;;3.45;1.98;;;18.70;99.90;;;18.06;100.00;101144.97;3949958;30;20390;-76
2022/08/22 00:49:15;;;;;;;4.78;2.00;;;18.70;99.90;;;18.05;100.00;101137.97;3935763;30;20052;-77
2022/08/22 00:51:34;;;;;;;5.13;2.13;;;18.70;99.90;;;18.07;100.00;101127.09;3936759;30;20040;-77
2022/08/22 00:54:03;;;;;;;6.22;2.47;;;18.70;99.90;;;18.06;100.00;101118.25;3937063;30;20044;-77
2022/08/22 00:56:55;;;;;;;7.32;2.80;;;18.70;99.90;;;17.96;100.00;101100.94;3936962;30;20055;-77
2022/08/22 00:59:29;;;;;;;5.85;3.10;;;18.70;99.90;;;18.11;100.00;101120.34;3936989;30;20035;-77
2022/08/22 01:01:43;;;;;;;14.50;3.57;;;18.70;99.90;;;17.98;100.00;101098.91;3936042;30;20032;-77
2022/08/22 01:03:46;;;;;;;6.70;3.35;;;18.70;99.90;;;18.06;100.00;101117.44;3931008;30;20111;-77
2022/08/22 01:05:59;;;;;;;8.85;3.58;;;18.70;99.90;;;17.96;100.00;101100.94;3935891;30;20048;-77
2022/08/22 01:08:21;;;;;;;8.10;3.50;;;18.60;99.90;;;17.99;100.00;101114.72;3950198;30;20413;-77
2022/08/22 01:10:40;;;;;;;9.02;3.33;;;18.60;99.90;;;17.93;100.00;101128.00;3936922;30;20040;-77
2022/08/22 01:13:13;;;;;;;7.07;3.60;;;18.60;99.90;;;17.78;100.00;101108.59;3936697;30;20560;-77
2022/08/22 01:15:23;;;;;;;9.48;3.47;;;18.50;99.90;;;17.88;100.00;101114.44;3936801;30;20471;-77
2022/08/22 01:17:51;;;;;;;8.60;3.90;;;18.50;99.90;;;17.89;100.00;101114.22;3937038;30;20036;-77
2022/08/22 01:20:42;;;;;;;5.88;3.38;;;18.50;99.90;;;17.86;100.00;101121.81;3936805;30;20412;-77
2022/08/22 01:23:13;;;;;;;7.47;3.33;;;18.50;99.90;;;17.86;100.00;101119.94;3935720;30;20039;-76
2022/08/22 01:25:41;;;;;;;9.23;3.85;;;18.50;99.90;;;17.85;100.00;101123.66;3935733;30;20040;-77
2022/08/22 01:28:06;;;;;;;5.88;3.70;;;18.50;99.90;;;17.85;100.00;101120.16;3936416;30;20036;-77
2022/08/22 01:30:37;;;;;;;6.15;3.45;;;18.40;99.90;;;17.71;100.00;101094.41;3936636;30;20036;-76
2022/08/22 01:32:41;;;;;;;8.25;3.95;;;18.40;99.90;;;17.82;100.00;101121.38;3947971;30;20028;-76
2022/08/22 01:35:18;;;;;;;6.78;3.60;;;18.50;99.90;;;17.86;100.00;101125.28;3936563;30;20065;-77
2022/08/22 01:38:11;;;;;;;6.78;4.30;;;18.40;99.90;;;17.83;100.00;101119.53;3936637;30;20397;-77
2022/08/22 01:41:28;;;;;;;7.13;3.80;;;18.40;99.90;;;17.81;100.00;101108.22;3936722;30;20032;-76
2022/08/22 01:44:01;;;;;;;5.97;3.75;;;18.40;99.90;;;17.82;100.00;101112.53;3940273;30;20054;-76
2022/08/22 01:46:20;;;;;;;7.93;4.57;;;18.40;99.90;;;17.83;100.00;101117.66;3936539;30;20036;-77
2022/08/22 01:48:49;;;;;;;7.38;4.03;;;18.40;99.90;;;17.64;100.00;101092.50;3935447;30;20080;-77
2022/08/22 01:51:10;;;;;;;9.05;4.32;;;18.40;99.90;;;17.66;100.00;101095.78;3926901;30;20425;-76
2022/08/22 01:53:24;;;;;;;5.53;3.90;;;18.40;99.90;;;17.67;100.00;101102.78;3925646;30;20386;-76
2022/08/22 01:55:36;;;;;;;7.05;3.80;;;18.40;99.90;;;17.82;100.00;101123.22;3949386;30;20503;-77
2022/08/22 01:58:00;;;;;;;5.78;4.00;;;18.40;99.90;;;17.66;100.00;101094.97;3949564;30;20055;-77
2022/08/22 02:00:14;;;;;;;4.57;3.00;;;18.40;99.90;;;17.66;100.00;101090.47;3949731;30;20496;-77
2022/08/22 02:02:55;;;;;;;5.15;3.55;;;18.50;99.90;;;17.86;100.00;101127.94;3935499;30;20527;-77
2022/08/22 02:05:27;;;;;;;5.95;3.30;;;18.50;99.90;;;17.74;100.00;101102.00;3929634;30;20028;-77
2022/08/22 02:07:42;;;;;;;4.00;3.60;;;18.40;99.90;;;17.82;100.00;101116.03;3935049;30;20529;-77
2022/08/22 02:10:16;;;;;;;5.40;3.80;;;18.50;99.90;;;17.75;100.00;101107.16;3936252;30;20150;-77
2022/08/22 02:12:47;;;;;;;4.85;3.40;;;18.40;99.90;;;17.80;100.00;101103.91;3935005;30;20032;-76
2022/08/22 02:15:22;;;;;;;6.10;4.18;;;18.50;99.90;;;17.88;100.00;101111.75;3943235;30;20056;-77
2022/08/22 02:17:47;;;;;;;3.78;2.85;;;18.50;99.90;;;17.89;100.00;101100.88;3936490;30;20053;-77
2022/08/22 02:20:02;;;;;;;5.60;3.67;;;18.50;99.90;;;17.92;100.00;101095.16;3936378;30;20036;-77
2022/08/22 02:23:02;;;;;;;4.13;3.42;;;18.50;99.90;;;17.93;100.00;101099.47;3936227;30;20036;-77
2022/08/22 02:25:31;;;;;;;4.20;3.33;;;18.50;99.90;;;17.92;100.00;101089.00;3936059;30;20042;-77
2022/08/22 02:28:09;;;;;;;5.28;3.63;;;18.50;99.90;;;17.89;100.00;101081.41;3948349;30;20039;-77
2022/08/22 02:30:25;;;;;;;9.38;4.65;;;18.60;99.90;;;17.97;100.00;101091.91;3947687;30;20032;-77
2022/08/22 02:32:41;;;;;;;8.30;4.15;;;18.60;99.90;;;17.98;100.00;101088.22;3949184;30;20032;-77
2022/08/22 02:35:05;;;;;;;6.95;3.72;;;18.60;99.90;;;17.97;100.00;101084.72;3936007;30;20064;-77
2022/08/22 02:37:19;;;;;;;5.82;3.60;;;18.60;99.90;;;17.92;100.00;101084.47;3934871;30;20039;-77
2022/08/22 02:39:43;;;;;;;6.28;3.42;;;18.60;99.90;;;17.96;100.00;101091.06;3929920;30;20032;-77
2022/08/22 02:42:01;;;;;;;7.55;4.20;;;18.60;99.90;;;17.88;100.00;101080.56;3925707;30;20119;-76
2022/08/22 02:44:37;;;;;;;6.68;4.50;;;18.50;99.90;;;17.81;100.00;101073.50;3948193;30;20091;-77
2022/08/22 02:46:54;;;;;;;6.00;4.45;;;18.60;99.90;;;17.94;100.00;101097.63;3948301;30;20045;-77
2022/08/22 02:49:27;;;;;;;10.75;4.90;;;18.60;99.90;;;17.96;100.00;101106.25;3949115;30;20044;-77
2022/08/22 02:52:00;;;;;;;6.25;4.35;;;18.60;99.90;;;17.78;100.00;101071.22;3936025;30;20024;-77
2022/08/22 02:54:46;;;;;;;7.47;4.70;;;18.50;99.90;;;17.92;100.00;101094.34;3934907;30;20529;-77
2022/08/22 02:57:28;;;;;;;6.32;4.25;;;18.50;99.90;;;17.89;100.00;101082.19;3931497;30;20070;-76
2022/08/22 02:59:35;;;;;;;8.27;4.18;;;18.50;99.90;;;17.87;100.00;101062.88;3926134;29;20083;-77
2022/08/22 03:01:42;;;;;;;5.07;3.72;;;18.50;99.90;;;17.84;100.00;101057.94;3935899;30;20031;-77
2022/08/22 03:03:46;;;;;;;10.73;4.25;;;18.50;99.90;;;17.78;100.00;101047.22;3935902;30;20044;-77
2022/08/22 03:06:04;;;;;;;6.95;4.95;;;18.50;99.90;;;17.92;100.00;101057.78;3934616;30;20039;-77
2022/08/22 03:08:31;;;;;;;9.05;6.03;;;18.60;99.90;;;17.89;100.00;101057.38;3937039;30;20425;-77
2022/08/22 03:10:42;;;;;;;7.53;5.60;;;18.50;99.90;;;17.83;100.00;101048.28;3938995;30;20547;-77
2022/08/22 03:13:11;;;;;;;11.18;5.32;;;18.60;99.90;;;17.84;100.00;101041.09;3951398;30;20058;-77
2022/08/22 03:15:38;;;;;;;8.13;5.97;;;18.50;99.90;;;17.97;100.00;101060.72;3951998;30;20043;-77
2022/08/22 03:17:59;;;;;;;8.02;6.05;;;18.60;99.90;;;17.90;100.00;101057.16;3938576;30;20041;-77
2022/08/22 03:20:14;;;;;;;9.50;6.57;;;18.50;99.90;;;17.84;100.00;101035.75;3951459;30;20035;-77
2022/08/22 03:22:54;;;;;;;16.08;8.68;;;18.50;99.90;;;17.78;100.00;101040.03;3937108;30;20082;-77
2022/08/22 03:25:22;;;;;;;11.43;7.07;;;18.60;99.90;;;17.93;100.00;101061.28;3933134;30;20113;-76
2022/08/22 03:27:38;;;;;;;12.98;8.07;;;18.50;99.90;;;17.90;100.00;101053.66;3929001;30;20040;-76
2022/08/22 03:29:52;;;;;;;12.95;7.90;;;18.60;99.90;;;17.84;100.00;101049.09;3951611;30;20111;-77
2022/08/22 03:32:13;;;;;;;9.70;7.18;;;18.50;99.90;;;17.74;100.00;101036.09;3951510;30;20111;-77
2022/08/22 03:34:25;;;;;;;10.73;8.13;;;18.50;99.90;;;17.94;100.00;101055.75;3951781;30;20493;-77
2022/08/22 03:36:30;;;;;;;10.27;6.97;;;18.50;99.90;;;17.75;100.00;101035.09;3938156;30;20043;-76
2022/08/22 03:38:33;;;;;;;12.43;7.78;;;18.50;99.90;;;17.94;100.00;101076.28;3938269;30;20028;-77
2022/08/22 03:41:07;;;;;;;14.48;8.55;;;18.50;99.90;;;17.94;100.00;101078.94;3938158;30;20032;-77
2022/08/22 03:43:48;;;;;;;11.77;7.70;;;18.60;99.90;;;17.93;100.00;101069.28;3937745;30;20032;-77
2022/08/22 03:46:32;;;;;;;12.02;8.43;;;18.60;99.90;;;17.91;100.00;101066.00;3937052;30;20119;-77
2022/08/22 03:49:01;;;;;;;18.17;9.50;;;18.60;99.90;;;17.95;100.00;101062.72;3929779;30;20036;-77
2022/08/22 03:52:01;;;;;;;13.65;9.90;;;18.50;99.90;;;17.95;100.00;101051.25;3938112;30;20046;-76
2022/08/22 03:54:28;;;;;;;13.70;8.82;;;18.60;99.90;;;17.84;100.00;101022.41;3938002;30;20446;-77
2022/08/22 03:57:05;;;;;;;14.82;8.75;;;18.60;99.90;;;17.99;100.00;101049.81;3950348;30;20051;-77
2022/08/22 03:59:39;;;;;;;15.40;8.93;;;18.60;99.90;;;17.99;100.00;101053.31;3936205;30;20493;-77
2022/08/22 04:02:24;;;;;;;15.07;9.43;;;18.60;99.90;;;17.89;100.00;101052.84;3929974;30;20077;-77
2022/08/22 04:05:05;;;;;;;12.93;8.45;;;18.60;99.90;;;17.99;100.00;101071.19;3949451;30;20036;-77
2022/08/22 04:07:12;;;;;;;12.93;7.63;;;18.60;99.90;;;17.99;100.00;101065.84;3936833;30;20424;-77
2022/08/22 04:09:33;;;;;;;12.57;8.40;;;18.60;99.90;;;18.00;100.00;101054.16;3926116;30;20500;-77
2022/08/22 04:12:07;;;;;;;15.23;8.15;;;18.60;99.90;;;18.04;100.00;101056.22;3937747;30;20032;-77
2022/08/22 04:14:32;;;;;;;10.82;8.63;;;18.60;99.90;;;18.04;100.00;101042.06;3937654;30;20480;-77
2022/08/22 04:16:45;;;;;;;8.38;5.95;;;18.60;99.90;;;18.01;100.00;101035.25;3937904;30;20044;-77
2022/08/22 04:19:49;;;;;;;10.32;7.53;;;18.70;99.90;;;17.93;100.00;101023.91;3937173;30;20032;-77
2022/08/22 04:22:30;;;;;;;12.30;7.00;;;18.70;99.90;;;18.06;100.00;101026.66;3961125;30;20036;-77
2022/08/22 04:24:54;;;;;;;12.35;7.80;;;18.70;99.90;;;18.07;100.00;101034.47;3939127;30;20106;-77
2022/08/22 04:27:26;;;;;;;10.57;7.53;;;18.70;99.90;;;18.01;100.00;101029.09;3937449;30;20044;-77
2022/08/22 04:30:04;;;;;;;11.20;7.50;;;18.70;99.90;;;18.02;100.00;101041.41;3939596;30;20048;-77
2022/08/22 04:32:20;;;;;;;10.68;7.15;;;18.70;99.90;;;18.06;100.00;101048.03;3941594;30;20052;-77
2022/08/22 04:34:53;;;;;;;10.57;7.40;;;18.70;99.90;;;18.05;100.00;101059.72;3936412;30;20125;-77
2022/08/22 04:37:29;;;;;;;9.57;7.15;;;18.70;99.90;;;18.00;100.00;101043.47;3926622;30;20048;-77
2022/08/22 04:39:52;;;;;;;9.23;6.07;;;18.70;99.90;;;17.97;100.00;101038.53;3948587;30;20051;-77
2022/08/22 04:42:18;;;;;;;9.40;6.18;;;18.70;99.90;;;17.90;100.00;101026.97;3937375;30;20036;-77
2022/08/22 04:44:28;;;;;;;12.20;7.18;;;18.70;99.90;;;18.09;100.00;101055.63;3936231;30;20047;-77
2022/08/22 04:47:23;;;;;;;9.32;5.68;;;18.70;99.90;;;18.10;100.00;101058.09;3935979;30;20127;-77
2022/08/22 04:49:36;;;;;;;12.27;7.35;;;18.70;99.90;;;18.03;100.00;101046.56;3952045;30;20115;-77
2022/08/22 04:51:56;;;;;;;8.88;6.50;;;18.70;99.90;;;18.10;100.00;101062.59;3939595;30;20048;-77
2022/08/22 04:54:53;;;;;;;10.00;6.10;;;18.80;99.90;;;18.17;100.00;101076.81;3936102;30;20048;-77
2022/08/22 04:57:22;;;;;;;9.55;6.45;;;18.70;99.90;;;18.03;100.00;101051.09;3937186;30;20071;-77
2022/08/22 04:59:24;;;;;;;8.77;6.97;;;18.80;99.90;;;17.99;100.00;101039.97;3935778;30;20043;-77
2022/08/22 05:01:37;;;;;;;9.15;6.38;;;18.80;99.90;;;18.18;100.00;101065.13;3929403;30;20024;-77
2022/08/22 05:03:57;;;;;;;8.02;5.97;;;18.80;99.90;;;18.18;100.00;101062.47;3936807;30;20044;-77
2022/08/22 05:06:01;;;;;;;8.32;6.00;;;18.80;99.90;;;18.12;100.00;101050.72;3936139;30;20544;-77
2022/08/22 05:08:08;;;;;;;8.98;6.63;;;18.80;99.90;;;18.02;100.00;101025.41;3927358;30;20110;-77
2022/08/22 05:10:28;;;;;;;8.50;5.60;;;18.80;99.90;;;18.03;100.00;101027.06;3932400;30;20074;-77
2022/08/22 05:12:39;;;;;;;7.00;4.95;;;18.80;99.90;;;18.10;100.00;101025.22;3949253;30;20039;-77
2022/08/22 05:14:54;;;;;;;11.65;6.57;;;18.80;99.90;;;18.18;100.00;101036.59;3950312;30;20532;-77
2022/08/22 05:16:57;;;;;;;8.43;5.82;;;18.80;99.90;;;18.18;100.00;101041.09;3935972;30;20410;-77
2022/08/22 05:19:16;;;;;;;10.55;6.90;;;18.80;99.90;;;18.15;100.00;101041.50;3924758;30;20070;-77
2022/08/22 05:21:24;;;;;;;10.35;6.72;;;18.80;99.90;;;18.21;100.00;101056.72;3937074;30;20036;-77
2022/08/22 05:23:42;;;;;;;10.20;5.70;;;18.80;99.90;;;18.07;100.00;101041.66;3949949;30;20038;-77
2022/08/22 05:25:48;;;;;;;10.02;6.15;;;18.80;99.90;;;18.11;100.00;101041.06;3940171;30;20124;-77
2022/08/22 05:27:57;;;;;;;9.57;5.95;;;18.90;99.90;;;18.14;100.00;101047.84;3949536;30;20060;-77
2022/08/22 05:30:10;;;;;;;8.50;5.80;;;18.80;99.90;;;18.13;100.00;101039.00;3949267;30;20035;-77
2022/08/22 05:32:35;;;;;;;9.15;5.22;;;18.90;99.90;;;18.16;100.00;101033.28;3936591;30;20031;-77
2022/08/22 05:34:41;;;;;;;7.88;5.35;;;18.90;99.90;;;18.28;100.00;101046.88;3935429;30;20036;-77
2022/08/22 05:37:07;;;;;;;9.13;5.88;;;18.90;99.90;;;18.15;100.00;101022.81;3934843;30;20032;-77
2022/08/22 05:39:21;;;;;;;5.93;4.60;;;18.90;99.90;;;18.20;100.00;101029.19;3935603;30;20032;-77
2022/08/22 05:41:27;;;;;;;8.43;5.45;;;18.90;99.90;;;18.33;100.00;101052.47;3935630;30;20032;-77
2022/08/22 05:43:30;;;;;;;7.88;4.47;;;18.90;99.90;;;18.17;100.00;101034.94;3950026;30;20122;-77
2022/08/22 05:45:34;;;;;;;6.05;4.20;;;18.90;99.90;;;18.24;100.00;101045.66;3935436;30;20628;-77
2022/08/22 05:47:45;;;;;;;8.93;4.32;;;18.90;99.90;;;18.24;100.00;101046.47;3936736;30;20047;-77
2022/08/22 05:49:57;;;;;;;4.72;2.63;;;18.90;99.90;;;18.29;100.00;101059.22;3924010;30;20124;-77
2022/08/22 05:52:27;;;;;;;4.55;2.30;;;18.90;99.90;;;18.21;100.00;101056.72;3928915;30;20096;-77
2022/08/22 05:54:33;;;;;;;4.45;1.92;;;18.90;99.90;;;18.18;100.00;101060.63;3935104;30;20048;-77
2022/08/22 05:56:51;;;;;;;2.28;1.52;;;18.90;99.90;;;18.21;100.00;101078.91;3925790;30;20092;-77
2022/08/22 05:59:04;;;;;;;4.03;1.35;;;18.90;99.90;;;18.27;100.00;101087.16;3935689;30;20024;-77
2022/08/22 06:01:36;;;;;;;3.08;1.55;;;18.90;99.90;;;18.33;100.00;101102.38;3949465;30;20036;-77
2022/08/22 06:04:04;;;;;;;3.13;1.38;;;18.90;99.90;;;18.25;100.00;101092.69;3949934;30;20146;-77
2022/08/22 06:06:15;;;;;;;5.43;1.38;;;19.00;99.90;;;18.26;100.00;101091.66;3949964;30;20425;-77
2022/08/22 06:08:24;;;;;;;2.03;1.30;;;19.00;99.90;;;18.51;100.00;101127.59;3949604;30;20032;-77
2022/08/22 06:10:35;;;;;;;2.17;1.58;;;19.10;99.90;;;18.52;100.00;101129.22;3936353;30;20092;-77
2022/08/22 06:13:04;;;;;;;2.67;1.33;;;19.20;99.90;;;18.46;100.00;101108.59;3936171;30;20028;-77
2022/08/22 06:15:50;;;;;;;3.13;1.30;;;19.20;99.90;;;18.48;100.00;101117.28;3935159;30;20414;-77
2022/08/22 06:18:06;;;;;;;1.80;1.42;;;19.20;99.90;;;18.44;100.00;101123.19;3927226;30;20040;-77
2022/08/22 06:20:13;;;;;;;1.88;1.50;;;19.20;99.90;;;18.45;100.00;101125.69;3949292;30;20031;-77
2022/08/22 06:22:23;;;;;;;2.40;1.25;;;19.20;99.90;;;18.35;100.00;101101.16;3949405;30;20397;-77
2022/08/22 06:24:27;;;;;;;2.13;1.23;;;19.20;99.90;;;18.45;100.00;101112.31;3949916;30;20552;-77
2022/08/22 06:26:44;;;;;;;2.33;1.25;;;19.20;99.90;;;18.57;100.00;101104.59;3949852;30;20529;-77
2022/08/22 06:28:49;;;;;;;1.52;0.93;;;19.30;99.90;;;18.71;100.00;101123.16;3949343;30;20039;-77
2022/08/22 06:30:56;;;;;;;2.38;1.38;;;19.40;99.90;;;18.57;100.00;101110.78;3949465;30;20039;-77
2022/08/22 06:33:05;;;;;;;3.08;0.90;;;19.40;99.90;;;18.69;100.00;101130.56;3949602;30;20558;-77
2022/08/22 06:35:23;;;;;;;2.25;1.35;;;19.40;99.90;;;18.64;100.00;101111.59;3935824;30;20036;-77
2022/08/22 06:37:42;;;;;;;1.70;1.15;;;19.40;99.90;;;18.78;100.00;101133.88;3935152;30;20055;-77
2022/08/22 06:39:48;;;;;;;1.58;0.93;;;19.40;99.90;;;18.74;100.00;101128.09;3948904;30;20036;-77
2022/08/22 06:42:22;;;;;;;2.28;1.38;;;19.40;99.90;;;18.68;100.00;101130.75;3950151;30;20035;-77
2022/08/22 06:44:32;;;;;;;1.30;0.90;;;19.40;99.90;;;18.66;100.00;101112.25;3923507;30;20119;-77
2022/08/22 06:46:36;;;;;;;1.98;0.90;;;19.40;99.90;;;18.83;100.00;101131.41;3937929;30;20178;-77
2022/08/22 06:48:38;;;;;;;1.40;0.90;;;19.40;99.90;;;18.76;100.00;101099.31;3952401;30;20162;-76
2022/08/22 06:50:42;;;;;;;1.45;0.80;;;19.50;99.90;;;18.84;100.00;101101.00;3952347;30;20035;-77
2022/08/22 06:53:17;;;;;;;2.13;1.42;;;19.50;99.90;;;18.88;100.00;101096.06;3937891;30;20059;-77
2022/08/22 06:55:19;;;;;;;1.10;0.68;;;19.60;99.90;;;18.94;100.00;101087.22;3952181;30;20122;-77
2022/08/22 06:57:40;;;;;;;1.20;0.70;;;19.70;99.90;;;19.08;100.00;101103.13;3938507;30;20098;-77
2022/08/22 06:59:42;;;;;;;2.05;0.98;;;19.70;99.90;;;19.10;100.00;101093.03;3951721;30;20039;-77
2022/08/22 07:02:35;;;;;;;2.05;1.00;;;19.80;99.90;;;19.22;100.00;101114.66;3952299;30;20061;-77
2022/08/22 07:04:36;;;;;;;1.20;0.90;;;19.90;99.90;;;19.13;100.00;101100.66;3937994;30;20040;-77
2022/08/22 07:06:49;;;;;;;3.17;0.80;;;19.90;99.90;;;19.29;100.00;101126.19;3938617;30;20032;-77
2022/08/22 07:08:54;;;;;;;1.10;0.60;;;19.90;99.90;;;19.39;100.00;101120.44;3951664;30;20074;-77
2022/08/22 07:11:13;;;;;;;0.70;0.30;;;20.00;99.90;;;19.32;100.00;101107.06;3937297;30;20441;-77
2022/08/22 07:13:18;;;;;;;1.00;0.50;;;20.10;99.90;;;19.41;100.00;101108.56;3916579;30;20047;-77
2022/08/22 07:15:39;;;;;;;1.60;0.55;;;20.10;99.90;;;19.44;100.00;101126.88;3937513;30;20116;-77
2022/08/22 07:17:56;;;;;;;0.93;0.43;;;20.10;99.90;;;19.26;100.00;101105.22;3938632;30;20772;-77
2022/08/22 07:20:23;;;;;;;0.70;0.50;;;20.10;99.90;;;19.47;100.00;101133.66;3936881;30;20032;-77
2022/08/22 07:22:29;;;;;;;1.70;0.88;;;20.10;99.90;;;19.55;100.00;101109.38;3928480;30;20526;-77
2022/08/22 07:24:32;;;;;;;1.27;0.80;;;20.20;99.90;;;19.64;100.00;101125.03;3951709;30;20508;-77
2022/08/22 07:26:54;;;;;;;1.02;0.73;;;20.30;99.90;;;19.77;100.00;101113.50;3951977;30;20039;-77
2022/08/22 07:29:32;;;;;;;3.22;0.63;;;20.40;99.90;;;19.74;100.00;101128.09;3951800;30;20043;-77
2022/08/22 07:31:37;;;;;;;1.42;0.95;;;20.50;99.90;;;19.76;100.00;101134.09;3922089;30;20437;-77
2022/08/22 07:33:49;;;;;;;1.42;0.70;;;20.50;99.90;;;19.39;100.00;101110.59;3927284;30;20044;-77
2022/08/22 07:36:05;;;;;;;1.10;0.73;;;20.40;99.90;;;19.60;100.00;101149.72;3936980;30;20024;-77
2022/08/22 07:38:46;;;;;;;0.90;0.50;;;20.30;99.90;;;19.28;100.00;101125.38;3938135;30;20390;-77
2022/08/22 07:41:30;;;;;;;1.10;0.70;;;20.20;99.90;;;19.35;100.00;101146.78;3936968;30;20032;-77
2022/08/22 07:43:37;;;;;;;1.97;0.70;;;20.10;99.90;;;19.07;100.00;101127.38;3939288;30;20040;-78
2022/08/22 07:45:51;;;;;;;2.25;0.80;;;20.10;99.90;;;19.27;100.00;101144.28;3951335;30;20032;-78
2022/08/22 07:48:22;;;;;;;1.38;0.50;;;20.10;99.90;;;19.37;100.00;101150.06;3951463;30;20066;-78
2022/08/22 07:50:32;;;;;;;1.67;0.65;;;20.10;99.90;;;19.46;100.00;101140.84;3936920;30;20127;-78
2022/08/22 07:52:42;;;;;;;2.20;0.52;;;20.20;99.90;;;19.61;100.00;101156.72;3934212;30;20096;-77
2022/08/22 07:55:14;;;;;;;0.80;0.43;;;20.30;99.90;;;19.91;100.00;101151.78;3950598;30;20040;-77
2022/08/22 07:57:27;;;;;;;1.60;0.68;;;20.50;99.90;;;20.17;100.00;101122.28;3934720;30;20035;-78
2022/08/22 07:59:32;;;;;;;1.42;0.60;;;20.80;99.90;;;20.29;100.00;101131.34;3933653;30;20032;-78
2022/08/22 08:01:34;;;;;;;0.73;0.50;;;20.90;99.90;;;20.25;100.00;101132.78;3949150;30;20034;-77
2022/08/22 08:03:36;;;;;;;2.08;0.60;;;21.00;99.90;;;20.20;100.00;101128.06;3950729;30;20035;-77
2022/08/22 08:05:42;;;;;;;1.17;0.60;;;21.00;99.90;;;20.34;100.00;101152.97;3951019;30;20039;-76
2022/08/22 08:07:46;;;;;;;1.25;0.32;;;21.00;99.90;;;20.13;100.00;101126.44;3935991;30;20059;-77
2022/08/22 08:10:05;;;;;;;1.50;0.40;;;21.00;99.90;;;20.27;100.00;101154.88;3904221;30;20052;-77
2022/08/22 08:12:09;;;;;;;0.57;0.38;;;20.90;99.90;;;20.14;100.00;101158.34;3947764;30;20043;-77
2022/08/22 08:14:14;;;;;;;2.30;0.38;;;20.90;99.90;;;20.13;100.00;101137.16;3934372;30;20087;-77
2022/08/22 08:16:24;;;;;;;0.77;0.35;;;21.00;99.90;;;20.38;100.00;101138.13;3919181;30;20128;-79
2022/08/22 08:18:29;;;;;;;2.05;0.30;;;21.20;99.90;;;20.58;100.00;101152.28;3934725;30;20552;-79
2022/08/22 08:20:33;;;;;;;0.32;0.20;;;21.30;99.90;;;20.56;100.00;101134.78;3934837;30;20169;-79
2022/08/22 08:22:36;;;;;;;0.40;0.20;;;21.40;99.90;;;20.91;100.00;101155.66;3920615;30;20052;-79
2022/08/22 08:24:41;;;;;;;0.97;0.10;;;21.50;99.90;;;21.04;100.00;101143.22;3920915;30;20036;-79
2022/08/22 08:29:17;;;;;;;0.30;0.10;;;21.70;99.90;;;20.91;100.00;101123.50;3929780;30;20055;-76
2022/08/22 08:31:36;;;;;;;0.40;0.10;;;21.70;99.90;;;21.14;100.00;101133.72;3935121;30;20035;-77
2022/08/22 08:33:49;;;;;;;0.77;0.20;;;21.80;99.90;;;21.31;100.00;101116.06;3934903;30;20069;-76
2022/08/22 08:35:58;;;;;;;0.57;0.20;;;22.00;99.90;;;21.80;100.00;101135.94;3921640;30;20037;-76
2022/08/22 08:38:19;;;;;;;0.43;0.40;;;22.30;99.90;;;21.41;100.00;101140.53;3934654;30;20062;-77
2022/08/22 08:40:30;;;;;;;0.40;0.20;;;22.30;99.90;;;21.27;100.00;101127.44;3921213;30;20043;-78
2022/08/22 08:43:26;;;;;;;0.90;0.20;;;22.10;99.90;;;21.14;100.00;101124.84;3916412;30;20029;-78
2022/08/22 08:46:05;;;;;;;0.40;0.20;;;22.00;99.90;;;20.81;100.00;101144.59;3922170;30;20048;-78
2022/08/22 08:48:38;;;;;;;1.15;0.40;;;21.80;99.90;;;20.61;100.00;101122.38;3921573;30;20044;-78
2022/08/22 08:51:04;;;;;;;0.63;0.30;;;21.50;99.90;;;20.78;100.00;101128.94;3925242;30;20132;-79
2022/08/22 08:53:14;;;;;;;1.27;0.40;;;21.60;99.90;;;21.10;100.00;101143.22;3920083;30;20037;-77
2022/08/22 08:55:37;;;;;;;1.10;0.30;;;21.60;99.90;;;21.18;100.00;101148.34;3920609;30;20064;-77
2022/08/22 08:58:30;;;;;;;0.55;0.20;;;21.70;99.90;;;20.94;100.00;101141.84;3920378;30;20044;-78
2022/08/22 09:00:41;;;;;;;0.85;0.30;;;21.60;99.90;;;21.13;100.00;101140.13;3917429;30;20036;-78
2022/08/22 09:02:48;;;;;;;2.03;0.40;;;21.60;99.90;;;21.45;100.00;101140.94;3918474;30;20711;-79
2022/08/22 09:05:19;;;;;;;0.65;0.30;;;21.90;99.90;;;21.79;100.00;101145.84;3922077;30;20575;-76
2022/08/22 09:07:31;;;;;;;0.77;0.35;;;22.30;99.90;;;21.60;100.00;101138.75;3921858;30;20036;-79
2022/08/22 09:09:42;;;;;;;0.47;0.28;;;22.30;99.90;;;21.12;100.00;101119.69;3918907;30;20070;-78
2022/08/22 09:11:57;;;;;;;0.73;0.30;;;22.10;99.90;;;21.25;100.00;101148.31;3921956;30;20095;-78
2022/08/22 09:14:05;;;;;;;0.90;0.47;;;22.00;99.90;;;21.20;100.00;101140.09;3921175;30;20056;-78
2022/08/22 09:16:21;;;;;;;1.20;0.70;;;21.90;99.90;;;21.08;100.00;101144.47;3921657;30;20401;-78
2022/08/22 09:18:58;;;;;;;0.70;0.40;;;21.80;99.90;;;20.95;100.00;101140.81;3921541;30;20037;-77
2022/08/22 09:21:22;;;;;;;1.00;0.50;;;21.80;99.90;;;21.18;100.00;101152.88;3921351;30;20039;-78
2022/08/22 09:23:53;;;;;;;2.83;0.50;;;21.80;99.90;;;21.41;100.00;101148.59;3913462;30;20042;-78
2022/08/22 09:26:17;;;;;;;1.40;0.77;;;21.90;99.90;;;21.17;100.00;101143.19;3917677;30;20040;-78
2022/08/22 09:28:42;;;;;;;0.95;0.40;;;22.10;99.90;;;20.97;100.00;101154.81;3927898;30;20068;-78
2022/08/22 09:31:07;;;;;;;0.93;0.55;;;22.10;99.90;;;21.10;100.00;101142.41;3921660;30;20048;-78
2022/08/22 09:33:23;;;;;;;1.38;0.60;;;22.00;99.90;;;21.16;100.00;101138.88;3925340;30;20127;-78
2022/08/22 09:36:01;;;;;;;0.93;0.60;;;22.00;99.90;;;21.42;100.00;101157.47;3934706;30;20044;-78
2022/08/22 09:38:21;;;;;;;0.40;0.30;;;22.10;99.90;;;21.54;100.00;101153.06;3911822;30;20075;-77
2022/08/22 09:40:54;;;;;;;0.32;0.20;;;22.20;99.90;;;21.51;100.00;101130.16;3920852;30;20036;-78
2022/08/22 09:43:18;;;;;;;1.30;0.47;;;22.40;99.90;;;21.81;100.00;101150.97;3923656;30;20045;-78